Lovejoy, Illinois
Current Conditions -  °F | °C
As of 7:53 AM on Saturday 20 Dec 2014 (Local Time) from KCPS Reporting Station
Overcast Overcast  
Wind Chill: -1°   Ceiling: 2600
Heat Index:   Visibility: 7mi
Dew Point: -1°   Wind: 5mph
Humidity: 82%   Direction: 150°SSE
Pressure: 30.28"   Gusts: NA
Location:  38.63°N, 90.15°W
Report Text: KCPS 201353Z 15004KT 7SM OVC026 02/M01 A3028 RMK AO2 SLP258 T00171011
Loading
Personal Weather Stations






























Interactive Weather Map New forecast layout! Learn more

10-Day Weather Forecast

Advertisements
Track Severe Weather on mobile